Terminal Aerodrome Forecast
Issued by NWS

Home | Current Version | Previous Version | Text Only | Print | Product List | Glossary On
Versions: 1 2 3 4 5 6 7 8 9 10 11 12 13 14 15
000
FTUS46 KSEW 271418 AAA
TAFBFI
TAF AMD
KBFI 271418Z 2714/2812 16006KT P6SM VCSH OVC025
      TEMPO 2714/2718 BKN018 BKN025
     FM271800 16006KT P6SM VCSH OVC035
     FM272100 19010KT P6SM VCSH BKN040
     FM280500 16006KT P6SM OVC030=

USA.gov is the U.S. government's official web portal to all federal, state and local government web resources and services.